Asbury, West Virginia
Current Conditions -  °F | °C
As of 10:35 AM on Friday 28 Nov 2014 (Local Time) from KLWB Reporting Station
Light Snow Light Snow  
Wind Chill: 22°   Ceiling: 3000
Heat Index: 28°   Visibility: 10mi
Dew Point: 16°   Wind: 5mph
Humidity: 61%   Direction: 300°WNW
Pressure: 30.3"   Gusts: NA
Location:  37.82°N, 80.56°W
Report Text: KLWB 281535Z AUTO 30004KT 10SM -SN OVC030 M02/M09 A3030 RMK AO2 T10251091
Loading
Personal Weather Stations






























Interactive Weather Map New forecast layout! Learn more

10-Day Weather Forecast

Advertisements
Track Severe Weather on mobile